Station: Birdsville  

  Atmospheric Gas Attenuation - ITU Rec 676-11   ----------------- dB/100km -----------------
Date Time Temp RH % AH g/m3 Dew Point Wind Direction Speed kph Gust kph Barometer mB Rainfall Since 9am 24GHz 47GHz 76GHz 122GHz 134GHz 241GHz
08/05 12:30 18.2 24 3.73 -2.7 26 39 1026.6 0 9.2 18.3 21.3 55.0 38.2 127.6
08/05 12:20 18.5 25 3.96 -1.9 30 35 1026.7 0 9.6 18.5 22.0 56.7 40.5 135.6
08/05 12:10 17.8 26 3.95 -1.9 33 39 1026.8 0 9.6 18.6 22.1 57.1 40.7 136.3
08/05 12:00 17.6 27 4.05 -1.6 24 35 1027.1 0 9.8 18.8 22.5 58.1 41.9 140.4
08/05 11:50 17.4 27 4 -1.8 28 32 1027.3 0 9.7 18.8 22.4 57.8 41.5 138.9
08/05 11:40 17.2 28 4.1 -1.4 28 33 1027.5 0 10.0 19.0 22.8 58.8 42.7 143.0
08/05 11:30 16.9 28 4.03 -1.7 28 37 1027.7 0 9.8 19.0 22.7 58.5 42.1 140.9
08/05 11:20 16.7 28 3.98 -1.9 35 39 1027.8 0 9.7 18.9 22.6 58.2 41.6 139.4
08/05 11:10 16.7 29 4.12 -1.4 32 39 1028 0 10.0 19.1 23.0 59.4 43.2 144.7
08/05 11:00 16.6 29 4.1 -1.5 32 44 1027.9 0 10.0 19.1 23.0 59.3 43.0 144.1
08/05 10:50 16.2 30 4.14 -1.4 26 30 1027.9 0 10.1 19.3 23.2 59.9 43.6 146.3
08/05 10:40 15.7 29 3.88 -2.3 30 33 1027.9 0 9.5 19.0 22.5 58.0 41.1 137.3
08/05 10:30 15.8 31 4.17 -1.3 32 43 1028 0 10.1 19.4 23.4 60.5 44.2 148.2
08/05 10:20 15.1 31 4 -1.9 30 33 1028 0 9.8 19.3 23.1 59.5 42.7 142.9
08/05 10:10 14.9 32 4.08 -1.6 35 44 1028 0 10.0 19.4 23.4 60.4 43.7 146.3
08/05 10:00 15.2 32 4.15 -1.4 33 46 1028 0 10.1 19.5 23.5 60.8 44.3 148.5
08/05 09:50 14.5 33 4.1 -1.6 35 39 1027.9 0 10.0 19.5 23.6 60.8 44.1 147.8
08/05 09:40 14.1 35 4.25 -1.1 30 37 1028 0 10.4 19.8 24.2 62.5 46.0 154.4
08/05 09:30 13.6 36 4.24 -1.2 33 46 1028 0 10.4 19.9 24.3 62.8 46.2 155.0
08/05 09:20 13.2 38 4.36 -0.8 33 41 1028 0 10.6 20.2 24.8 64.2 47.8 160.5
08/05 09:10 12.8 41 4.59 -0.1 28 33 1027.9 0 11.1 20.6 25.7 66.6 50.6 170.6
08/05 09:00 12.3 42 4.56 -0.2 26 37 1027.8 0 11.1 20.7 25.8 66.8 50.6 170.4
08/05 08:50 11.8 45 4.74 0.3 24 28 1027.7 0 11.5 21.0 26.6 68.9 53.0 178.8
08/05 08:40 11.2 46 4.66 0 26 32 1027.4 0 11.3 21.0 26.5 68.6 52.5 176.8
08/05 08:30 10.1 53 5.01 1 19 24 1027.4 0 12.1 21.8 28.1 72.9 57.4 194.0
08/05 08:20 9.3 57 5.12 1.2 17 19 1027.3 0 12.4 22.2 28.8 74.8 59.3 200.7
08/05 08:10 8.7 59 5.1 1.1 17 20 1027.1 0 12.3 22.3 28.9 75.1 59.5 201.3
08/05 08:00 8.4 60 5.09 1.1 17 22 1027.1 0 12.3 22.3 29.0 75.3 59.6 201.6
08/05 07:50 8.1 62 5.16 1.3 17 19 1027.1 0 12.5 22.5 29.4 76.3 60.7 205.5
08/05 07:40 7.9 63 5.18 1.3 15 19 1027 0 12.5 22.6 29.5 76.7 61.1 206.9
08/05 07:30 7.7 64 5.19 1.3 15 19 1026.9 0 12.6 22.6 29.6 77.0 61.4 207.8
08/05 07:20 7.6 64 5.16 1.2 15 17 1026.8 0 12.5 22.6 29.5 76.7 61.1 206.7
08/05 07:10 7.7 64 5.19 1.3 17 19 1026.7 0 12.6 22.6 29.6 76.9 61.4 207.8
08/05 07:00 7.8 64 5.23 1.4 17 20 1026.6 0 12.6 22.7 29.7 77.2 61.8 209.3
08/05 06:50 8 63 5.21 1.4 15 19 1026.4 0 12.6 22.6 29.6 76.8 61.4 207.8
08/05 06:40 8.2 63 5.28 1.6 17 20 1026.2 0 12.7 22.6 29.7 77.3 62.1 210.4
08/05 06:30 8.3 63 5.31 1.7 17 22 1026 0 12.8 22.6 29.8 77.5 62.4 211.4
08/05 06:20 8.4 63 5.35 1.8 19 22 1025.9 0 12.9 22.7 29.9 77.8 62.8 212.9
08/05 06:10 8.4 63 5.35 1.8 15 17 1025.8 0 12.9 22.7 29.9 77.8 62.8 212.9
08/05 06:00 8.6 63 5.42 2 17 24 1025.8 0 13.0 22.7 30.1 78.3 63.5 215.4
08/05 05:50 8.7 63 5.45 2.1 20 24 1025.6 0 13.1 22.7 30.2 78.5 63.8 216.5
08/05 05:40 8.8 63 5.49 2.2 19 24 1025.6 0 13.2 22.8 30.3 78.8 64.3 218.0
08/05 05:30 8.9 63 5.52 2.3 17 22 1025.7 0 13.2 22.8 30.4 79.1 64.6 219.0
08/05 05:20 9.1 64 5.68 2.7 20 24 1025.7 0 13.5 23.0 30.9 80.5 66.4 225.6
08/05 05:10 9.1 64 5.68 2.7 17 19 1025.6 0 13.5 23.0 30.9 80.5 66.4 225.6
08/05 05:00 9 64 5.64 2.6 17 22 1025.5 0 13.5 23.0 30.8 80.2 66.0 224.0
08/05 04:50 9.1 64 5.68 2.7 19 20 1025.5 0 13.5 23.0 30.9 80.5 66.4 225.5
08/05 04:40 9.1 63 5.59 2.4 19 22 1025.4 0 13.4 22.9 30.6 79.5 65.3 221.5
08/05 04:30 9.1 63 5.59 2.4 17 22 1025.5 0 13.4 22.9 30.6 79.6 65.3 221.5
08/05 04:20 9.2 62 5.54 2.3 17 19 1025.5 0 13.2 22.8 30.3 78.9 64.6 219.1
08/05 04:10 9.4 62 5.61 2.5 15 17 1025.6 0 13.4 22.8 30.5 79.5 65.3 221.6
08/05 04:00 9.5 62 5.65 2.6 13 17 1025.6 0 13.5 22.9 30.7 79.8 65.7 223.1
08/05 03:50 9.6 61 5.59 2.5 15 17 1025.6 0 13.3 22.7 30.4 79.1 64.9 220.2
08/05 03:40 9.9 60 5.6 2.5 13 15 1025.6 0 13.3 22.7 30.3 78.9 64.7 219.8
08/05 03:30 10.2 59 5.62 2.6 13 19 1025.5 0 13.4 22.6 30.3 78.8 64.7 219.8
08/05 03:20 10.5 58 5.63 2.6 13 15 1025.5 0 13.4 22.6 30.2 78.6 64.6 219.4
08/05 03:10 10.7 57 5.6 2.5 13 15 1025.5 0 13.3 22.5 30.0 78.1 64.1 217.6
08/05 03:00 10.9 56 5.57 2.5 17 20 1025.6 0 13.3 22.4 29.8 77.6 63.6 215.8
08/05 02:50 11.1 55 5.54 2.4 15 17 1025.6 0 13.2 22.3 29.6 77.1 63.0 214.0
08/05 02:40 11.4 54 5.54 2.4 19 20 1025.5 0 13.2 22.2 29.5 76.8 62.8 213.1
08/05 02:30 11.6 54 5.61 2.6 20 28 1025.4 0 13.3 22.3 29.7 77.3 63.5 215.6
08/05 02:20 11.8 53 5.58 2.5 20 24 1025.5 0 13.2 22.2 29.5 76.8 63.0 213.8
08/05 02:10 12 52 5.54 2.5 19 19 1025.5 0 13.1 22.1 29.3 76.2 62.3 211.6
08/05 02:00 12.2 52 5.61 2.6 19 24 1025.5 0 13.3 22.1 29.5 76.7 63.0 214.0
08/05 01:50 12.4 51 5.57 2.6 17 20 1025.5 0 13.2 22.0 29.3 76.1 62.4 211.8
08/05 01:40 12.7 50 5.57 2.6 19 22 1025.6 0 13.2 21.9 29.2 75.9 62.1 211.0
08/05 01:30 12.9 49 5.52 2.5 20 26 1025.6 0 13.1 21.8 28.9 75.2 61.4 208.4
08/05 01:20 13.1 48 5.48 2.4 19 20 1025.6 0 13.0 21.7 28.7 74.6 60.7 206.2
08/05 01:10 13.3 48 5.55 2.5 19 22 1025.6 0 13.1 21.8 28.9 75.1 61.4 208.6
08/05 01:00 13.5 47 5.5 2.4 24 32 1025.5 0 13.0 21.7 28.6 74.4 60.7 206.0
08/05 00:50 13.7 46 5.45 2.3 24 32 1025.6 0 12.9 21.5 28.4 73.8 59.9 203.4
08/05 00:40 13.9 46 5.51 2.5 24 32 1025.6 0 13.0 21.6 28.5 74.2 60.5 205.4
08/05 00:30 14.1 46 5.58 2.7 24 32 1025.5 0 13.2 21.6 28.7 74.7 61.2 207.8
08/05 00:20 14.2 45 5.5 2.5 24 30 1025.5 0 13.0 21.5 28.4 73.8 60.1 204.2
08/05 00:10 14.4 45 5.56 2.6 24 30 1025.7 0 13.1 21.5 28.5 74.2 60.7 206.3
08/05 00:00 14.6 45 5.63 2.8 24 35 1025.7 0 13.2 21.6 28.7 74.7 61.4 208.6
07/05 23:50 14.7 45 5.67 2.9 24 28 1025.7 0 13.3 21.6 28.8 75.0 61.8 210.0
07/05 23:40 14.8 45 5.7 3 24 30 1025.7 0 13.4 21.6 28.9 75.2 62.1 211.0
07/05 23:30 14.9 46 5.86 3.4 24 33 1025.8 0 13.7 21.9 29.4 76.6 63.9 217.4
07/05 23:20 15.1 46 5.93 3.6 24 30 1025.9 0 13.9 21.9 29.6 77.1 64.5 219.8
07/05 23:10 15.2 46 5.97 3.7 22 30 1025.8 0 13.9 21.9 29.7 77.4 64.9 221.2
07/05 23:00 15.5 47 6.21 4.3 26 37 1026 0 14.4 22.2 30.5 79.4 67.5 230.4
07/05 22:50 15.7 47 6.29 4.4 30 35 1025.8 0 14.6 22.3 30.7 80.0 68.3 233.1
07/05 22:40 15.7 50 6.69 5.3 26 32 1025.6 0 15.4 22.9 32.1 83.8 73.1 249.9
07/05 22:30 15.9 51 6.91 5.8 28 35 1025.6 0 15.9 23.1 32.9 85.8 75.6 258.6
07/05 22:20 16.1 52 7.13 6.3 28 32 1025.5 0 16.4 23.4 33.6 87.7 78.0 267.3
07/05 22:10 16.2 52 7.17 6.3 26 30 1025.5 0 16.4 23.5 33.7 88.0 78.4 268.7
07/05 22:00 16.4 52 7.26 6.5 28 39 1025.4 0 16.6 23.5 33.9 88.7 79.3 271.9
07/05 21:50 16.5 52 7.3 6.6 30 33 1025.4 0 16.7 23.6 34.1 89.0 79.7 273.3
07/05 21:40 16.6 52 7.35 6.7 22 26 1025.4 0 16.8 23.6 34.2 89.4 80.2 275.1
07/05 21:30 16.9 53 7.62 7.3 26 37 1025.3 0 17.4 23.9 35.1 91.7 83.2 285.6
07/05 21:20 17 53 7.67 7.4 24 28 1025.2 0 17.5 24.0 35.2 92.1 83.7 287.4
07/05 21:10 17.2 54 7.91 7.8 26 32 1025.1 0 18.0 24.3 36.0 94.2 86.5 297.0
07/05 21:00 17.3 54 7.95 7.9 24 30 1025.1 0 18.0 24.3 36.1 94.5 86.9 298.4
07/05 20:50 17.4 54 8 8 22 26 1025.1 0 18.1 24.4 36.3 94.9 87.4 300.2
07/05 20:40 17.5 53 7.9 7.8 20 26 1025 0 17.9 24.2 35.8 93.8 86.0 295.5
07/05 20:30 17.7 53 8 8 22 33 1024.8 0 18.1 24.3 36.1 94.5 87.0 299.0
07/05 20:20 17.9 52 7.94 7.9 24 28 1024.6 0 18.0 24.1 35.8 93.7 86.1 295.6
07/05 20:10 18.1 52 8.03 8.1 24 32 1024.6 0 18.2 24.2 36.0 94.3 86.9 298.8
07/05 20:00 18.2 51 7.93 7.9 20 24 1024.4 0 18.0 24.0 35.6 93.2 85.6 294.1

Last Refresh: 08-May-2026 12:08:28

Bureau of Meteorology